createdAt,value
2022-11-15T00:00:49.712Z,91.23
2022-11-15T00:01:49.773Z,91.54
2022-11-15T00:02:49.680Z,91.23
2022-11-15T00:03:49.661Z,91.13
2022-11-15T00:04:49.668Z,91.74
2022-11-15T00:05:52.494Z,91.23
2022-11-15T00:06:49.700Z,92.05
2022-11-15T00:07:55.693Z,91.85
2022-11-15T00:08:51.602Z,91.95
2022-11-15T00:09:49.572Z,91.23
2022-11-15T00:10:49.550Z,91.13
2022-11-15T00:11:49.560Z,91.23
2022-11-15T00:12:49.510Z,91.13
2022-11-15T00:13:49.493Z,91.33
2022-11-15T00:14:49.484Z,91.33
2022-11-15T00:15:49.474Z,90.92
2022-11-15T00:16:49.489Z,91.33
2022-11-15T00:17:49.425Z,91.33
2022-11-15T00:18:50.985Z,91.23
2022-11-15T00:19:50.556Z,91.23
2022-11-15T00:20:49.393Z,91.23
2022-11-15T00:22:23.001Z,91.44
2022-11-15T00:22:49.360Z,91.33
2022-11-15T00:23:49.330Z,91.23
2022-11-15T00:24:49.324Z,91.13
2022-11-15T00:25:49.290Z,91.33
2022-11-15T00:26:49.313Z,91.03
2022-11-15T00:27:49.279Z,90.72
2022-11-15T00:28:49.250Z,90.92
2022-11-15T00:29:49.248Z,90.21
2022-11-15T00:30:49.213Z,90.82
2022-11-15T00:31:49.221Z,90.62
2022-11-15T00:32:49.169Z,90.52
2022-11-15T00:33:49.150Z,90.92
2022-11-15T00:34:49.129Z,90.52
2022-11-15T00:35:49.219Z,90.52
2022-11-15T00:36:49.145Z,90.82
2022-11-15T00:37:49.088Z,90.52
2022-11-15T00:38:49.068Z,90.41
2022-11-15T00:39:49.068Z,90.41
2022-11-15T00:40:49.033Z,90.92
2022-11-15T00:41:49.059Z,90.47
2022-11-15T00:42:49.006Z,90.52
2022-11-15T00:43:48.989Z,90.52
2022-11-15T00:44:48.951Z,90.88
2022-11-15T00:45:48.948Z,90.47
2022-11-15T00:46:48.953Z,90.37
2022-11-15T00:47:48.940Z,89.86
2022-11-15T00:48:48.884Z,90.17
2022-11-15T00:49:48.876Z,89.86
2022-11-15T00:50:49.091Z,90.37
2022-11-15T00:51:48.867Z,89.86
2022-11-15T00:52:48.816Z,89.86
2022-11-15T00:53:48.798Z,90.06
2022-11-15T00:54:48.786Z,89.97
2022-11-15T00:55:48.773Z,90.37
2022-11-15T00:56:48.781Z,90.58
2022-11-15T00:57:48.735Z,90.47
2022-11-15T00:58:48.727Z,90.52
2022-11-15T00:59:48.692Z,90.47
2022-11-15T01:00:48.728Z,90.62
2022-11-15T01:01:48.730Z,90.72
2022-11-15T01:02:48.648Z,90.52
2022-11-15T01:03:48.634Z,90.68
2022-11-15T01:04:48.623Z,89.65
2022-11-15T01:05:48.676Z,90.62
2022-11-15T01:06:48.759Z,90.52
2022-11-15T01:07:48.569Z,89.86
2022-11-15T01:08:48.572Z,89.65
2022-11-15T01:09:48.544Z,89.65
2022-11-15T01:10:48.574Z,89.97
2022-11-15T01:11:48.541Z,89.45
2022-11-15T01:12:48.487Z,89.56
2022-11-15T01:13:48.470Z,89.35
2022-11-15T01:14:48.456Z,89.25
2022-11-15T01:15:48.449Z,89.76
2022-11-15T01:16:48.449Z,89.20
2022-11-15T01:17:48.403Z,88.64
2022-11-15T01:18:48.382Z,89.25
2022-11-15T01:19:48.376Z,88.74
2022-11-15T01:20:48.337Z,89.15
2022-11-15T01:21:48.397Z,89.25
2022-11-15T01:22:48.309Z,88.94
2022-11-15T01:23:48.294Z,88.94
2022-11-15T01:24:48.287Z,89.15
2022-11-15T01:25:48.265Z,88.84
2022-11-15T01:26:48.272Z,89.15
2022-11-15T01:27:48.218Z,88.94
2022-11-15T01:28:48.205Z,88.74
2022-11-15T01:29:48.184Z,89.25
2022-11-15T01:30:48.177Z,89.04
2022-11-15T01:31:48.193Z,89.25
2022-11-15T01:32:48.150Z,89.25
2022-11-15T01:33:48.182Z,89.25
2022-11-15T01:34:48.163Z,89.04
2022-11-15T01:35:48.085Z,89.04
2022-11-15T01:36:48.098Z,89.25
2022-11-15T01:37:48.053Z,89.15
2022-11-15T01:38:48.043Z,89.25
2022-11-15T01:39:48.022Z,88.94
2022-11-15T01:40:48.004Z,88.94
2022-11-15T01:41:48.188Z,88.84
2022-11-15T01:46:00.303Z,88.43
2022-11-15T01:47:00.350Z,88.49
2022-11-15T01:48:00.298Z,88.79
2022-11-15T01:49:00.279Z,88.79
2022-11-15T01:50:00.261Z,88.70
2022-11-15T01:51:00.289Z,88.90
2022-11-15T01:52:00.259Z,88.53
2022-11-15T01:53:00.209Z,88.59
2022-11-15T01:54:00.193Z,88.79
2022-11-15T01:55:00.169Z,89.15
2022-11-15T01:56:00.149Z,88.84
2022-11-15T01:57:01.317Z,88.53
2022-11-15T01:58:01.267Z,88.84
2022-11-15T01:59:01.245Z,88.74
2022-11-15T02:00:01.258Z,88.94
2022-11-15T02:01:01.272Z,89.09
2022-11-15T02:02:01.225Z,89.18
2022-11-15T02:03:01.173Z,88.68
2022-11-15T02:04:01.163Z,88.68
2022-11-15T02:05:01.144Z,89.80
2022-11-15T02:06:01.126Z,89.39
2022-11-15T02:07:01.178Z,89.09
2022-11-15T02:08:01.107Z,89.50
2022-11-15T02:09:01.117Z,88.98
2022-11-15T02:10:01.068Z,89.18
2022-11-15T02:11:01.033Z,89.94
2022-11-15T02:12:01.069Z,89.50
2022-11-15T02:13:01.005Z,90.00
2022-11-15T02:14:00.988Z,89.90
2022-11-15T02:15:00.980Z,89.84
2022-11-15T02:16:03.167Z,90.05
2022-11-15T02:17:01.975Z,90.15
2022-11-15T02:18:00.918Z,89.70
2022-11-15T02:19:00.906Z,90.00
2022-11-15T02:20:00.886Z,89.39
2022-11-15T02:21:00.869Z,89.50
2022-11-15T02:22:00.909Z,89.70
2022-11-15T02:23:00.837Z,89.90
2022-11-15T02:24:00.824Z,89.80
2022-11-15T02:25:00.803Z,89.70
2022-11-15T02:26:00.796Z,89.70
2022-11-15T02:27:00.811Z,89.50
2022-11-15T02:28:00.750Z,89.29
2022-11-15T02:29:00.726Z,89.39
2022-11-15T02:30:00.754Z,89.50
2022-11-15T02:31:00.694Z,89.50
2022-11-15T02:32:00.712Z,89.80
2022-11-15T02:33:00.667Z,89.59
2022-11-15T02:34:00.650Z,89.18
2022-11-15T02:35:00.626Z,89.29
2022-11-15T02:36:00.615Z,89.25
2022-11-15T02:37:00.627Z,89.25
2022-11-15T02:38:01.301Z,89.15
2022-11-15T02:39:00.558Z,89.35
2022-11-15T02:40:00.551Z,89.39
2022-11-15T02:41:00.553Z,89.18
2022-11-15T02:42:00.554Z,89.09
2022-11-15T02:43:05.630Z,89.25
2022-11-15T02:44:03.285Z,89.39
2022-11-15T02:45:01.251Z,88.74
2022-11-15T02:46:00.439Z,89.04
2022-11-15T02:47:00.460Z,89.09
2022-11-15T02:48:00.401Z,89.80
2022-11-15T02:49:00.392Z,89.50
2022-11-15T02:50:00.374Z,89.80
2022-11-15T02:51:00.365Z,89.45
2022-11-15T02:52:00.365Z,89.59
2022-11-15T02:53:01.168Z,88.98
2022-11-15T02:54:00.298Z,89.80
2022-11-15T02:55:00.291Z,89.50
2022-11-15T02:56:00.396Z,89.39
2022-11-15T02:57:00.468Z,89.50
2022-11-15T02:58:01.121Z,89.39
2022-11-15T02:59:00.212Z,89.29
2022-11-15T03:00:00.218Z,89.29
2022-11-15T03:01:00.274Z,89.50
2022-11-15T03:02:00.220Z,89.29
2022-11-15T03:03:00.157Z,89.25
2022-11-15T03:04:00.151Z,89.29
2022-11-15T03:05:01.067Z,89.50
2022-11-15T03:06:00.116Z,89.25
2022-11-15T03:07:00.183Z,89.29
2022-11-15T03:08:02.526Z,89.59
2022-11-15T03:09:01.661Z,89.29
2022-11-15T03:10:00.036Z,89.50
2022-11-15T03:11:00.017Z,89.29
2022-11-15T03:12:00.657Z,89.09
2022-11-15T03:12:59.988Z,89.29
2022-11-15T03:13:59.963Z,89.50
2022-11-15T03:14:59.959Z,89.59
2022-11-15T03:15:59.935Z,89.39
2022-11-15T03:16:59.954Z,89.39
2022-11-15T03:17:59.901Z,89.50
2022-11-15T03:18:59.897Z,89.18
2022-11-15T03:20:00.760Z,89.50
2022-11-15T03:20:59.851Z,89.76
2022-11-15T03:21:59.900Z,90.00
2022-11-15T03:22:59.817Z,89.90
2022-11-15T03:23:59.815Z,89.90
2022-11-15T03:24:59.775Z,89.80
2022-11-15T03:25:59.753Z,89.90
2022-11-15T03:27:00.192Z,89.90
2022-11-15T03:27:59.735Z,89.59
2022-11-15T03:28:59.715Z,89.90
2022-11-15T03:29:59.755Z,89.90
2022-11-15T03:30:59.673Z,90.41
2022-11-15T03:31:59.693Z,90.00
2022-11-15T03:32:59.646Z,90.21
2022-11-15T03:33:59.632Z,89.90
2022-11-15T03:34:59.601Z,90.31
2022-11-15T03:35:59.592Z,89.90
2022-11-15T03:36:59.617Z,89.80
2022-11-15T03:37:59.588Z,89.90
2022-11-15T03:38:59.548Z,90.00
2022-11-15T03:40:00.105Z,89.86
2022-11-15T03:40:59.504Z,89.86
2022-11-15T03:41:59.546Z,89.39
2022-11-15T03:42:59.511Z,89.90
2022-11-15T03:43:59.467Z,89.80
2022-11-15T03:45:00.106Z,89.80
2022-11-15T03:46:00.297Z,90.00
2022-11-15T03:46:59.430Z,89.80
2022-11-15T03:47:59.390Z,89.90
2022-11-15T03:48:59.367Z,90.11
2022-11-15T03:49:59.348Z,90.21
2022-11-15T03:50:59.334Z,89.90
2022-11-15T03:52:00.157Z,90.41
2022-11-15T03:52:59.299Z,90.11
2022-11-15T03:53:59.281Z,89.86
2022-11-15T03:54:59.267Z,89.90
2022-11-15T03:55:59.250Z,89.76
2022-11-15T03:56:59.269Z,89.25
2022-11-15T03:57:59.256Z,89.04
2022-11-15T03:59:00.164Z,89.65
2022-11-15T03:59:59.255Z,89.18
2022-11-15T04:00:59.200Z,89.80
2022-11-15T04:01:59.172Z,89.70
2022-11-15T04:02:59.122Z,89.90
2022-11-15T04:03:59.121Z,90.31
2022-11-15T04:04:59.752Z,90.52
2022-11-15T04:05:59.087Z,90.52
2022-11-15T04:06:59.170Z,90.00
2022-11-15T04:07:59.046Z,90.31
2022-11-15T04:08:59.023Z,90.41
2022-11-15T04:09:59.012Z,89.39
2022-11-15T04:10:59.114Z,90.41
2022-11-15T04:11:59.064Z,89.86
2022-11-15T04:12:58.950Z,90.31
2022-11-15T04:13:58.944Z,90.31
2022-11-15T04:14:59.783Z,90.21
2022-11-15T04:15:58.901Z,90.11
2022-11-15T04:16:58.928Z,90.00
2022-11-15T04:17:58.907Z,90.52
2022-11-15T04:18:58.860Z,90.62
2022-11-15T04:19:58.831Z,90.72
2022-11-15T04:20:58.813Z,90.11
2022-11-15T04:21:58.834Z,89.90
2022-11-15T04:22:58.789Z,90.52
2022-11-15T04:23:58.770Z,90.31
2022-11-15T04:24:58.757Z,90.41
2022-11-15T04:25:58.729Z,90.52
2022-11-15T04:26:58.747Z,90.52
2022-11-15T04:27:58.692Z,90.52
2022-11-15T04:28:58.682Z,90.82
2022-11-15T04:29:59.675Z,90.62
2022-11-15T04:30:59.258Z,90.62
2022-11-15T04:31:58.655Z,90.62
2022-11-15T04:32:58.611Z,90.41
2022-11-15T04:33:58.581Z,90.00
2022-11-15T04:34:58.564Z,90.52
2022-11-15T04:35:58.604Z,90.11
2022-11-15T04:36:58.577Z,89.90
2022-11-15T04:37:59.281Z,90.41
2022-11-15T04:38:58.500Z,89.90
2022-11-15T04:39:58.504Z,90.11
2022-11-15T04:40:58.470Z,90.41
2022-11-15T04:41:58.483Z,90.37
2022-11-15T04:43:03.618Z,89.90
2022-11-15T04:43:59.412Z,90.11
2022-11-15T04:44:58.391Z,90.37
2022-11-15T04:45:58.410Z,90.72
2022-11-15T04:46:58.397Z,90.52
2022-11-15T04:47:58.354Z,90.62
2022-11-15T04:48:59.373Z,90.52
2022-11-15T04:49:59.309Z,90.31
2022-11-15T04:50:58.291Z,90.21
2022-11-15T04:51:58.324Z,90.11
2022-11-15T04:52:58.256Z,90.62
2022-11-15T04:53:58.245Z,89.90
2022-11-15T04:54:58.217Z,90.21
2022-11-15T04:55:58.261Z,90.31
2022-11-15T04:56:58.625Z,90.56
2022-11-15T04:57:58.171Z,90.92
2022-11-15T04:58:58.152Z,90.77
2022-11-15T04:59:58.136Z,90.41
2022-11-15T05:00:58.171Z,90.77
2022-11-15T05:01:58.139Z,90.82
2022-11-15T05:02:58.099Z,90.82
2022-11-15T05:03:58.142Z,90.62
2022-11-15T05:04:58.050Z,90.41
2022-11-15T05:05:58.044Z,90.72
2022-11-15T05:06:58.220Z,90.82
2022-11-15T05:07:57.996Z,90.31
2022-11-15T05:08:57.987Z,90.41
2022-11-15T05:09:58.633Z,90.82
2022-11-15T05:10:57.951Z,90.62
2022-11-15T05:11:57.958Z,90.52
2022-11-15T05:12:57.968Z,90.21
2022-11-15T05:13:57.893Z,90.11
2022-11-15T05:14:57.882Z,90.21
2022-11-15T05:15:57.851Z,89.86
2022-11-15T05:16:58.630Z,90.11
2022-11-15T05:17:57.832Z,89.86
2022-11-15T05:18:57.803Z,89.86
2022-11-15T05:19:57.796Z,89.86
2022-11-15T05:20:57.777Z,90.58
2022-11-15T05:21:57.806Z,90.37
2022-11-15T05:22:57.754Z,90.31
2022-11-15T05:23:57.740Z,89.97
2022-11-15T05:24:57.733Z,90.47
2022-11-15T05:25:57.696Z,89.92
2022-11-15T05:26:57.704Z,90.58
2022-11-15T05:27:57.650Z,90.37
2022-11-15T05:28:57.639Z,89.86
2022-11-15T05:29:58.604Z,90.17
2022-11-15T05:30:57.597Z,90.12
2022-11-15T05:31:57.619Z,90.23
2022-11-15T05:32:57.589Z,90.02
2022-11-15T05:33:57.554Z,89.97
2022-11-15T05:34:58.081Z,89.82
2022-11-15T05:35:58.214Z,89.92
2022-11-15T05:36:57.520Z,89.82
2022-11-15T05:37:57.477Z,89.92
2022-11-15T05:38:57.471Z,89.92
2022-11-15T05:39:57.457Z,90.12
2022-11-15T05:40:57.427Z,89.82
2022-11-15T05:41:57.443Z,89.61
2022-11-15T05:42:57.470Z,89.51
2022-11-15T05:43:57.368Z,89.61
2022-11-15T05:44:57.361Z,89.20
2022-11-15T05:45:57.342Z,89.41
2022-11-15T05:46:57.349Z,89.31
2022-11-15T05:47:57.310Z,89.31
2022-11-15T05:48:57.975Z,89.51
2022-11-15T05:49:57.259Z,89.20
2022-11-15T05:50:57.254Z,89.41
2022-11-15T05:51:57.259Z,89.20
2022-11-15T05:53:00.954Z,89.72
2022-11-15T05:53:59.773Z,89.41
2022-11-15T05:54:57.181Z,89.41
2022-11-15T05:55:58.031Z,89.82
2022-11-15T05:56:57.187Z,89.51
2022-11-15T05:57:57.139Z,89.92
2022-11-15T05:58:59.744Z,89.51
2022-11-15T05:59:58.107Z,89.51
2022-11-15T06:00:57.077Z,89.31
2022-11-15T06:01:57.143Z,89.20
2022-11-15T06:02:57.102Z,89.11
2022-11-15T06:03:57.759Z,89.31
2022-11-15T06:04:57.581Z,89.51
2022-11-15T06:05:57.049Z,89.41
2022-11-15T06:06:57.142Z,89.41
2022-11-15T06:07:56.958Z,89.31
2022-11-15T06:08:56.959Z,89.20
2022-11-15T06:09:56.979Z,89.72
2022-11-15T06:10:57.768Z,89.41
2022-11-15T06:11:56.942Z,89.41
2022-11-15T06:12:56.887Z,89.45
2022-11-15T06:13:56.873Z,89.35
2022-11-15T06:14:56.856Z,89.72
2022-11-15T06:15:56.827Z,89.86
2022-11-15T06:16:56.853Z,89.97
2022-11-15T06:17:56.793Z,89.86
2022-11-15T06:18:57.621Z,90.37
2022-11-15T06:19:56.773Z,90.06
2022-11-15T06:20:56.741Z,89.97
2022-11-15T06:21:56.755Z,90.27
2022-11-15T06:22:56.710Z,90.31
2022-11-15T06:23:56.706Z,90.21
2022-11-15T06:25:00.187Z,89.90
2022-11-15T06:25:57.718Z,90.66
2022-11-15T06:26:57.081Z,90.77
2022-11-15T06:27:57.620Z,90.52
2022-11-15T06:28:57.244Z,90.62
2022-11-15T06:29:56.591Z,90.97
2022-11-15T06:30:56.627Z,91.48
2022-11-15T06:31:56.625Z,91.17
2022-11-15T06:32:56.536Z,91.93
2022-11-15T06:33:56.523Z,91.99
2022-11-15T06:34:56.501Z,91.89
2022-11-15T06:35:57.260Z,91.78
2022-11-15T06:36:57.521Z,91.93
2022-11-15T06:37:56.504Z,91.89
2022-11-15T06:38:56.431Z,91.69
2022-11-15T06:39:56.427Z,91.73
2022-11-15T06:40:56.410Z,91.73
2022-11-15T06:41:56.423Z,91.78
2022-11-15T06:42:57.200Z,92.03
2022-11-15T06:43:56.386Z,92.55
2022-11-15T06:44:56.337Z,92.03
2022-11-15T06:45:57.322Z,92.50
2022-11-15T06:46:56.324Z,92.71
2022-11-15T06:47:56.278Z,92.19
2022-11-15T06:48:56.267Z,92.75
2022-11-15T06:49:56.238Z,91.93
2022-11-15T06:50:57.060Z,91.63
2022-11-15T06:51:56.294Z,91.73
2022-11-15T06:52:56.207Z,91.73
2022-11-15T06:53:56.206Z,92.24
2022-11-15T06:54:56.155Z,91.73
2022-11-15T06:55:56.182Z,91.93
2022-11-15T06:56:56.167Z,91.83
2022-11-15T06:57:56.134Z,91.83
2022-11-15T06:58:56.091Z,92.03
2022-11-15T06:59:56.084Z,91.93
2022-11-15T07:00:56.262Z,91.22
2022-11-15T07:01:56.086Z,91.27
2022-11-15T07:02:56.019Z,90.52
2022-11-15T07:03:56.015Z,89.65
2022-11-15T07:04:55.987Z,88.49
2022-11-15T07:05:55.976Z,86.88
2022-11-15T07:06:56.023Z,86.59
2022-11-15T07:07:55.934Z,84.82
2022-11-15T07:08:55.910Z,83.01
2022-11-15T07:09:55.992Z,80.83
2022-11-15T07:10:55.879Z,79.88
2022-11-15T07:11:55.918Z,78.41
2022-11-15T07:12:55.854Z,78.08
2022-11-15T07:13:55.836Z,76.51
2022-11-15T07:14:55.832Z,75.60
2022-11-15T07:15:56.553Z,75.36
2022-11-15T07:16:55.868Z,75.02
2022-11-15T07:17:55.797Z,74.71
2022-11-15T07:18:55.793Z,73.36
2022-11-15T07:19:55.736Z,72.75
2022-11-15T07:20:55.841Z,72.58
2022-11-15T07:21:56.697Z,70.93
2022-11-15T07:22:55.705Z,71.73
2022-11-15T07:23:55.683Z,70.76
2022-11-15T07:24:55.669Z,69.51
2022-11-15T07:25:56.551Z,67.99
2022-11-15T07:26:55.631Z,68.94
2022-11-15T07:27:56.600Z,68.33
2022-11-15T07:28:55.594Z,69.61
2022-11-15T07:29:55.573Z,71.06
2022-11-15T07:30:55.545Z,71.40
2022-11-15T07:31:55.651Z,73.50
2022-11-15T07:32:55.517Z,73.90
2022-11-15T07:33:55.508Z,74.79
2022-11-15T07:34:55.476Z,75.09
2022-11-15T07:35:55.461Z,75.53
2022-11-15T07:36:55.474Z,75.73
2022-11-15T07:37:55.423Z,76.28
2022-11-15T07:38:55.410Z,76.68
2022-11-15T07:39:55.400Z,76.95
2022-11-15T07:40:55.386Z,75.94
2022-11-15T07:41:56.067Z,76.10
2022-11-15T07:42:55.409Z,75.36
2022-11-15T07:43:55.329Z,74.17
2022-11-15T07:44:55.314Z,71.03
2022-11-15T07:45:59.068Z,69.74
2022-11-15T07:46:57.137Z,68.19
2022-11-15T07:47:55.257Z,66.89
2022-11-15T07:48:55.253Z,65.34
2022-11-15T07:49:55.260Z,64.37
2022-11-15T07:50:55.208Z,63.84
2022-11-15T07:51:56.054Z,63.84
2022-11-15T07:52:55.184Z,63.36
2022-11-15T07:53:55.176Z,64.14
2022-11-15T07:54:55.184Z,63.22
2022-11-15T07:55:55.110Z,66.61
2022-11-15T07:56:55.089Z,69.88
2022-11-15T07:57:55.136Z,71.88
2022-11-15T07:58:55.951Z,74.21
2022-11-15T07:59:55.072Z,75.81
2022-11-15T08:00:55.073Z,76.11
2022-11-15T08:01:55.119Z,77.37
2022-11-15T08:02:55.148Z,77.87
2022-11-15T08:03:54.982Z,78.32
2022-11-15T08:04:55.002Z,78.73
2022-11-15T08:05:54.953Z,79.68
2022-11-15T08:06:54.969Z,79.75
2022-11-15T08:07:54.912Z,77.87
2022-11-15T08:08:54.882Z,76.62
2022-11-15T08:09:54.909Z,76.59
2022-11-15T08:10:54.857Z,76.01
2022-11-15T08:11:54.843Z,77.13
2022-11-15T08:12:55.589Z,77.06
2022-11-15T08:13:54.813Z,77.78
2022-11-15T08:14:54.930Z,78.53
2022-11-15T08:15:57.778Z,79.14
2022-11-15T08:16:55.763Z,79.03
2022-11-15T08:17:54.758Z,78.63
2022-11-15T08:18:54.760Z,78.42
2022-11-15T08:19:55.614Z,77.78
2022-11-15T08:20:54.697Z,77.87
2022-11-15T08:21:54.659Z,76.76
2022-11-15T08:22:54.662Z,77.44
2022-11-15T08:23:54.678Z,75.29
2022-11-15T08:24:54.653Z,74.68
2022-11-15T08:25:54.601Z,74.48
2022-11-15T08:26:54.633Z,74.28
2022-11-15T08:27:55.268Z,74.24
2022-11-15T08:28:54.559Z,73.19
2022-11-15T08:29:59.297Z,71.80
2022-11-15T08:30:56.517Z,70.69
2022-11-15T08:31:54.514Z,67.99
2022-11-15T08:32:54.488Z,65.67
2022-11-15T08:33:54.498Z,64.73
2022-11-15T08:34:54.488Z,65.00
2022-11-15T08:35:54.488Z,64.33
2022-11-15T08:36:54.413Z,63.59
2022-11-15T08:37:54.403Z,64.43
2022-11-15T08:38:54.413Z,63.26
2022-11-15T08:39:54.391Z,62.65
2022-11-15T08:40:54.340Z,63.93
2022-11-15T08:41:54.330Z,65.61
2022-11-15T08:42:54.308Z,63.70
2022-11-15T08:43:54.306Z,63.13
2022-11-15T08:44:54.406Z,63.62
2022-11-15T08:45:54.269Z,63.78
2022-11-15T08:46:54.266Z,64.03
2022-11-15T08:47:54.835Z,64.06
2022-11-15T08:48:55.216Z,65.03
2022-11-15T08:49:54.233Z,65.70
2022-11-15T08:50:54.178Z,67.11
2022-11-15T08:51:54.149Z,67.45
2022-11-15T08:52:54.146Z,66.47
2022-11-15T08:53:54.122Z,65.67
2022-11-15T08:54:54.143Z,64.64
2022-11-15T08:55:54.999Z,63.93
2022-11-15T08:56:54.085Z,64.29
2022-11-15T08:57:54.056Z,65.56
2022-11-15T08:58:54.032Z,64.90
2022-11-15T08:59:56.046Z,63.59
2022-11-15T09:00:54.995Z,62.43
2022-11-15T09:01:54.098Z,61.21
2022-11-15T09:02:53.973Z,60.05
2022-11-15T09:03:53.990Z,61.18
2022-11-15T09:04:53.987Z,62.35
2022-11-15T09:05:54.448Z,62.59
2022-11-15T09:06:54.782Z,64.09
2022-11-15T09:07:54.490Z,65.87
2022-11-15T09:08:54.113Z,64.79
2022-11-15T09:09:53.909Z,64.29
2022-11-15T09:10:53.842Z,66.07
2022-11-15T09:11:56.832Z,66.33
2022-11-15T09:12:55.797Z,67.85
2022-11-15T09:13:54.705Z,69.13
2022-11-15T09:14:54.499Z,68.83
2022-11-15T09:15:54.629Z,69.24
2022-11-15T09:16:53.729Z,70.21
2022-11-15T09:17:53.715Z,71.60
2022-11-15T09:18:53.690Z,73.57
2022-11-15T09:19:53.702Z,73.57
2022-11-15T09:20:53.658Z,73.50
2022-11-15T09:21:53.641Z,74.31
2022-11-15T09:22:53.621Z,74.72
2022-11-15T09:23:53.607Z,75.16
2022-11-15T09:24:53.657Z,75.06
2022-11-15T09:25:54.595Z,75.26
2022-11-15T09:26:53.571Z,75.67
2022-11-15T09:27:53.541Z,76.18
2022-11-15T09:28:53.527Z,75.46
2022-11-15T09:29:53.541Z,75.87
2022-11-15T09:30:53.491Z,75.53
2022-11-15T09:31:53.469Z,74.41
2022-11-15T09:32:54.057Z,70.39
2022-11-15T09:33:53.489Z,67.83
2022-11-15T09:34:53.458Z,66.25
2022-11-15T09:35:53.398Z,64.58
2022-11-15T09:36:53.382Z,63.20
2022-11-15T09:37:56.304Z,62.26
2022-11-15T09:38:54.362Z,60.60
2022-11-15T09:39:53.991Z,59.66
2022-11-15T09:40:53.373Z,59.26
2022-11-15T09:41:53.302Z,58.93
2022-11-15T09:42:53.370Z,58.95
2022-11-15T09:43:53.269Z,59.13
2022-11-15T09:44:53.283Z,57.92
2022-11-15T09:45:53.242Z,58.25
2022-11-15T09:46:53.216Z,59.62
2022-11-15T09:47:53.209Z,60.28
2022-11-15T09:48:54.098Z,60.81
2022-11-15T09:49:57.826Z,62.88
2022-11-15T09:50:54.146Z,63.52
2022-11-15T09:51:53.122Z,64.67
2022-11-15T09:52:54.121Z,64.90
2022-11-15T09:54:56.013Z,65.20
2022-11-15T09:55:54.068Z,65.43
2022-11-15T09:56:53.044Z,65.61
2022-11-15T09:57:53.010Z,65.20
2022-11-15T09:58:54.602Z,65.73
2022-11-15T09:59:54.001Z,65.91
2022-11-15T10:00:53.090Z,66.41
2022-11-15T10:01:52.996Z,65.64
2022-11-15T10:02:52.970Z,66.55
2022-11-15T10:03:52.921Z,65.81
2022-11-15T10:04:52.936Z,65.57
2022-11-15T10:05:52.886Z,65.11
2022-11-15T10:06:52.907Z,63.29
2022-11-15T10:07:52.838Z,62.55
2022-11-15T10:08:53.546Z,62.99
2022-11-15T10:09:52.831Z,63.39
2022-11-15T10:11:09.691Z,63.36
2022-11-15T10:11:54.777Z,63.84
2022-11-15T10:12:52.764Z,61.66
2022-11-15T10:13:52.741Z,60.57
2022-11-15T10:14:54.566Z,58.62
2022-11-15T10:15:54.686Z,58.65
2022-11-15T10:16:53.681Z,59.46
2022-11-15T10:17:52.680Z,58.73
2022-11-15T10:18:52.654Z,58.00
2022-11-15T10:19:52.637Z,58.40
2022-11-15T10:20:52.658Z,58.09
2022-11-15T10:21:52.608Z,57.90
2022-11-15T10:22:52.591Z,58.12
2022-11-15T10:23:52.594Z,59.03
2022-11-15T10:24:52.549Z,58.53
2022-11-15T10:25:52.570Z,59.16
2022-11-15T10:26:53.496Z,58.88
2022-11-15T10:27:52.506Z,58.65
2022-11-15T10:28:53.630Z,58.95
2022-11-15T10:29:52.472Z,59.46
2022-11-15T10:30:52.490Z,59.59
2022-11-15T10:31:52.442Z,59.03
2022-11-15T10:32:53.171Z,59.99
2022-11-15T10:33:52.418Z,60.12
2022-11-15T10:34:52.451Z,60.19
2022-11-15T10:35:52.428Z,60.09
2022-11-15T10:36:52.357Z,60.16
2022-11-15T10:37:52.363Z,59.13
2022-11-15T10:38:52.333Z,58.00
2022-11-15T10:39:53.221Z,58.00
2022-11-15T10:40:52.340Z,58.33
2022-11-15T10:41:52.291Z,59.95
2022-11-15T10:42:52.277Z,61.41
2022-11-15T10:43:52.276Z,63.19
2022-11-15T10:44:52.230Z,65.37
2022-11-15T10:45:52.986Z,64.76
2022-11-15T10:46:52.215Z,66.64
2022-11-15T10:47:52.182Z,66.55
2022-11-15T10:48:52.164Z,67.49
2022-11-15T10:49:52.148Z,68.13
2022-11-15T10:50:53.087Z,68.73
2022-11-15T10:51:52.107Z,68.87
2022-11-15T10:52:52.102Z,69.17
2022-11-15T10:53:52.075Z,68.63
2022-11-15T10:54:52.076Z,68.87
2022-11-15T10:55:52.078Z,69.71
2022-11-15T10:56:52.032Z,70.42
2022-11-15T10:57:52.038Z,70.35
2022-11-15T10:58:52.006Z,70.89
2022-11-15T10:59:51.963Z,71.84
2022-11-15T11:00:52.036Z,72.31
2022-11-15T11:01:52.550Z,72.96
2022-11-15T11:02:52.675Z,73.09
2022-11-15T11:03:51.890Z,72.78
2022-11-15T11:04:51.885Z,74.51
2022-11-15T11:05:51.950Z,74.31
2022-11-15T11:06:51.896Z,74.34
2022-11-15T11:07:51.875Z,74.65
2022-11-15T11:08:51.814Z,74.55
2022-11-15T11:09:51.796Z,74.41
2022-11-15T11:10:53.490Z,74.55
2022-11-15T11:11:53.527Z,74.85
2022-11-15T11:12:51.745Z,74.95
2022-11-15T11:13:52.716Z,75.49
2022-11-15T11:14:51.708Z,75.56
2022-11-15T11:15:51.719Z,75.70
2022-11-15T11:16:51.682Z,75.46
2022-11-15T11:17:51.671Z,75.43
2022-11-15T11:18:51.640Z,74.92
2022-11-15T11:19:52.431Z,75.36
2022-11-15T11:20:51.638Z,75.26
2022-11-15T11:21:51.595Z,75.56
2022-11-15T11:22:51.590Z,75.87
2022-11-15T11:23:52.169Z,76.78
2022-11-15T11:24:51.647Z,76.88
2022-11-15T11:25:51.572Z,75.87
2022-11-15T11:26:55.799Z,75.43
2022-11-15T11:27:54.428Z,75.12
2022-11-15T11:28:51.481Z,75.43
2022-11-15T11:29:51.510Z,75.02
2022-11-15T11:30:51.905Z,75.22
2022-11-15T11:31:51.492Z,75.52
2022-11-15T11:32:55.045Z,75.43
2022-11-15T11:33:52.411Z,75.67
2022-11-15T11:34:51.390Z,75.12
2022-11-15T11:35:51.466Z,75.43
2022-11-15T11:36:52.028Z,75.52
2022-11-15T11:37:51.336Z,76.03
2022-11-15T11:38:51.361Z,75.73
2022-11-15T11:39:51.320Z,75.93
2022-11-15T11:40:51.421Z,76.48
2022-11-15T11:41:51.271Z,75.22
2022-11-15T11:42:52.194Z,75.43
2022-11-15T11:43:51.250Z,76.14
2022-11-15T11:44:51.225Z,76.48
2022-11-15T11:45:51.261Z,76.58
2022-11-15T11:46:51.185Z,76.82
2022-11-15T11:47:51.161Z,76.98
2022-11-15T11:48:51.927Z,76.78
2022-11-15T11:49:51.132Z,76.58
2022-11-15T11:50:51.153Z,76.54
2022-11-15T11:51:51.117Z,76.37
2022-11-15T11:52:51.107Z,76.03
2022-11-15T11:53:51.983Z,75.63
2022-11-15T11:54:51.076Z,75.76
2022-11-15T11:55:51.104Z,75.67
2022-11-15T11:56:51.039Z,75.46
2022-11-15T11:57:50.986Z,75.52
2022-11-15T11:58:50.994Z,75.32
2022-11-15T11:59:50.957Z,75.43
2022-11-15T12:00:50.969Z,75.32
2022-11-15T12:01:51.038Z,74.98
2022-11-15T12:02:51.021Z,75.49
2022-11-15T12:03:50.905Z,75.19
2022-11-15T12:04:50.909Z,76.71
2022-11-15T12:05:50.887Z,75.49
2022-11-15T12:06:50.989Z,76.64
2022-11-15T12:07:50.871Z,75.29
2022-11-15T12:08:50.809Z,74.82
2022-11-15T12:09:51.579Z,75.52
2022-11-15T12:10:50.819Z,75.39
2022-11-15T12:11:50.765Z,75.09
2022-11-15T12:12:50.775Z,75.22
2022-11-15T12:13:50.769Z,75.52
2022-11-15T12:14:50.715Z,75.43
2022-11-15T12:15:50.733Z,75.73
2022-11-15T12:16:50.687Z,75.43
2022-11-15T12:17:50.664Z,75.93
2022-11-15T12:18:50.705Z,76.85
2022-11-15T12:19:50.630Z,75.83
2022-11-15T12:20:50.644Z,75.49
2022-11-15T12:21:50.583Z,75.49
2022-11-15T12:22:52.533Z,75.90
2022-11-15T12:23:50.557Z,76.31
2022-11-15T12:24:51.224Z,74.98
2022-11-15T12:25:50.593Z,75.32
2022-11-15T12:26:50.518Z,75.12
2022-11-15T12:27:50.498Z,76.44
2022-11-15T12:29:06.285Z,75.29
2022-11-15T12:29:52.471Z,75.49
2022-11-15T12:30:50.477Z,75.59
2022-11-15T12:31:50.434Z,75.43
2022-11-15T12:32:50.467Z,75.63
2022-11-15T12:33:51.219Z,75.29
2022-11-15T12:34:50.380Z,75.39
2022-11-15T12:35:50.407Z,75.49
2022-11-15T12:36:50.353Z,76.00
2022-11-15T12:37:50.330Z,75.49
2022-11-15T12:38:50.319Z,75.29
2022-11-15T12:39:50.294Z,75.49
2022-11-15T12:40:50.302Z,76.00
2022-11-15T12:41:50.269Z,75.90
2022-11-15T12:42:50.316Z,76.85
2022-11-15T12:43:50.231Z,76.54
2022-11-15T12:44:50.227Z,76.75
2022-11-15T12:45:50.232Z,76.54
2022-11-15T12:46:50.183Z,77.15
2022-11-15T12:47:50.155Z,77.15
2022-11-15T12:48:50.968Z,76.85
2022-11-15T12:49:50.146Z,76.95
2022-11-15T12:50:50.155Z,76.64
2022-11-15T12:51:50.093Z,77.56
2022-11-15T12:52:50.080Z,77.70
2022-11-15T12:53:50.966Z,77.97
2022-11-15T12:54:50.053Z,77.59
2022-11-15T12:55:50.059Z,77.86
2022-11-15T12:56:50.018Z,77.56